sensor_id;sensor_type;location;lat;lon;timestamp;P1;durP1;ratioP1;P2;durP2;ratioP2
44995;SDS011;30729;49.486;10.792;2022-11-11T00:01:57;11.73;;;6.45;;
44995;SDS011;30729;49.486;10.792;2022-11-11T00:04:23;13.15;;;6.93;;
44995;SDS011;30729;49.486;10.792;2022-11-11T00:06:48;14.63;;;7.07;;
44995;SDS011;30729;49.486;10.792;2022-11-11T00:09:14;11.20;;;6.50;;
44995;SDS011;30729;49.486;10.792;2022-11-11T00:11:39;13.75;;;6.88;;
44995;SDS011;30729;49.486;10.792;2022-11-11T00:14:04;12.52;;;6.25;;
44995;SDS011;30729;49.486;10.792;2022-11-11T00:16:30;9.10;;;5.32;;
44995;SDS011;30729;49.486;10.792;2022-11-11T00:21:59;11.55;;;6.22;;
44995;SDS011;30729;49.486;10.792;2022-11-11T00:24:43;10.73;;;5.28;;
44995;SDS011;30729;49.486;10.792;2022-11-11T00:27:27;11.35;;;5.88;;
44995;SDS011;30729;49.486;10.792;2022-11-11T00:29:52;9.68;;;5.03;;
44995;SDS011;30729;49.486;10.792;2022-11-11T00:32:17;12.57;;;4.65;;
44995;SDS011;30729;49.486;10.792;2022-11-11T00:34:54;8.00;;;4.53;;
44995;SDS011;30729;49.486;10.792;2022-11-11T00:37:41;10.20;;;5.00;;
44995;SDS011;30729;49.486;10.792;2022-11-11T00:40:08;8.55;;;4.50;;
44995;SDS011;30729;49.486;10.792;2022-11-11T00:42:34;9.90;;;4.93;;
44995;SDS011;30729;49.486;10.792;2022-11-11T00:45:00;9.80;;;4.80;;
44995;SDS011;30729;49.486;10.792;2022-11-11T00:47:25;11.75;;;5.60;;
44995;SDS011;30729;49.486;10.792;2022-11-11T00:50:14;9.88;;;5.45;;
44995;SDS011;30729;49.486;10.792;2022-11-11T00:53:00;10.60;;;5.10;;
44995;SDS011;30729;49.486;10.792;2022-11-11T00:55:28;9.90;;;5.15;;
44995;SDS011;30729;49.486;10.792;2022-11-11T00:57:53;9.63;;;5.35;;
44995;SDS011;30729;49.486;10.792;2022-11-11T01:00:19;14.13;;;5.13;;
44995;SDS011;30729;49.486;10.792;2022-11-11T01:02:44;12.18;;;6.57;;
44995;SDS011;30729;49.486;10.792;2022-11-11T01:05:10;17.23;;;8.55;;
44995;SDS011;30729;49.486;10.792;2022-11-11T01:07:35;18.90;;;8.93;;
44995;SDS011;30729;49.486;10.792;2022-11-11T01:10:00;17.80;;;9.55;;
44995;SDS011;30729;49.486;10.792;2022-11-11T01:12:26;19.08;;;9.70;;
44995;SDS011;30729;49.486;10.792;2022-11-11T01:14:51;26.70;;;10.50;;
44995;SDS011;30729;49.486;10.792;2022-11-11T01:17:17;23.98;;;9.13;;
44995;SDS011;30729;49.486;10.792;2022-11-11T01:19:43;17.30;;;9.13;;
44995;SDS011;30729;49.486;10.792;2022-11-11T01:22:08;25.80;;;8.80;;
44995;SDS011;30729;49.486;10.792;2022-11-11T01:24:35;16.85;;;8.32;;
44995;SDS011;30729;49.486;10.792;2022-11-11T01:27:02;14.68;;;7.13;;
44995;SDS011;30729;49.486;10.792;2022-11-11T01:29:27;14.88;;;6.97;;
44995;SDS011;30729;49.486;10.792;2022-11-11T01:31:52;15.57;;;7.03;;
44995;SDS011;30729;49.486;10.792;2022-11-11T01:34:18;14.23;;;7.53;;
44995;SDS011;30729;49.486;10.792;2022-11-11T01:36:43;11.05;;;5.68;;
44995;SDS011;30729;49.486;10.792;2022-11-11T01:39:09;10.98;;;5.82;;
44995;SDS011;30729;49.486;10.792;2022-11-11T01:41:34;9.50;;;5.68;;
44995;SDS011;30729;49.486;10.792;2022-11-11T01:46:41;11.85;;;6.85;;
44995;SDS011;30729;49.486;10.792;2022-11-11T01:52:16;14.13;;;6.30;;
44995;SDS011;30729;49.486;10.792;2022-11-11T01:54:53;12.88;;;6.95;;
44995;SDS011;30729;49.486;10.792;2022-11-11T01:57:33;14.20;;;6.63;;
44995;SDS011;30729;49.486;10.792;2022-11-11T02:00:09;13.85;;;6.50;;
44995;SDS011;30729;49.486;10.792;2022-11-11T02:03:10;10.52;;;6.05;;
44995;SDS011;30729;49.486;10.792;2022-11-11T02:05:30;10.93;;;6.28;;
44995;SDS011;30729;49.486;10.792;2022-11-11T02:10:56;14.23;;;7.97;;
44995;SDS011;30729;49.486;10.792;2022-11-11T02:13:26;12.60;;;6.30;;
44995;SDS011;30729;49.486;10.792;2022-11-11T02:16:09;11.35;;;5.90;;
44995;SDS011;30729;49.486;10.792;2022-11-11T02:18:35;10.05;;;5.78;;
44995;SDS011;30729;49.486;10.792;2022-11-11T02:21:00;11.30;;;5.85;;
44995;SDS011;30729;49.486;10.792;2022-11-11T02:23:30;9.98;;;5.72;;
44995;SDS011;30729;49.486;10.792;2022-11-11T02:26:01;12.93;;;6.43;;
44995;SDS011;30729;49.486;10.792;2022-11-11T02:28:28;11.95;;;6.25;;
44995;SDS011;30729;49.486;10.792;2022-11-11T02:30:57;14.50;;;6.28;;
44995;SDS011;30729;49.486;10.792;2022-11-11T02:33:22;12.52;;;5.57;;
44995;SDS011;30729;49.486;10.792;2022-11-11T02:35:49;13.38;;;6.28;;
44995;SDS011;30729;49.486;10.792;2022-11-11T02:38:25;15.15;;;7.00;;
44995;SDS011;30729;49.486;10.792;2022-11-11T02:40:51;13.07;;;6.82;;
44995;SDS011;30729;49.486;10.792;2022-11-11T02:43:35;13.88;;;6.80;;
44995;SDS011;30729;49.486;10.792;2022-11-11T02:46:02;11.98;;;5.53;;
44995;SDS011;30729;49.486;10.792;2022-11-11T02:48:29;12.15;;;5.28;;
44995;SDS011;30729;49.486;10.792;2022-11-11T02:50:55;10.45;;;5.05;;
44995;SDS011;30729;49.486;10.792;2022-11-11T02:53:20;16.02;;;5.13;;
44995;SDS011;30729;49.486;10.792;2022-11-11T02:55:46;10.63;;;4.80;;
44995;SDS011;30729;49.486;10.792;2022-11-11T02:58:12;10.00;;;5.00;;
44995;SDS011;30729;49.486;10.792;2022-11-11T03:00:39;10.68;;;5.72;;
44995;SDS011;30729;49.486;10.792;2022-11-11T03:03:05;9.75;;;5.18;;
44995;SDS011;30729;49.486;10.792;2022-11-11T03:05:30;10.05;;;5.22;;
44995;SDS011;30729;49.486;10.792;2022-11-11T03:07:56;12.38;;;5.28;;
44995;SDS011;30729;49.486;10.792;2022-11-11T03:10:21;13.32;;;6.43;;
44995;SDS011;30729;49.486;10.792;2022-11-11T03:12:47;10.85;;;5.93;;
44995;SDS011;30729;49.486;10.792;2022-11-11T03:15:12;12.20;;;6.35;;
44995;SDS011;30729;49.486;10.792;2022-11-11T03:17:37;13.98;;;6.45;;
44995;SDS011;30729;49.486;10.792;2022-11-11T03:20:09;14.25;;;6.85;;
44995;SDS011;30729;49.486;10.792;2022-11-11T03:23:07;12.05;;;5.90;;
44995;SDS011;30729;49.486;10.792;2022-11-11T03:25:38;15.10;;;6.83;;
44995;SDS011;30729;49.486;10.792;2022-11-11T03:28:06;13.07;;;6.45;;
44995;SDS011;30729;49.486;10.792;2022-11-11T03:30:34;12.55;;;6.13;;
44995;SDS011;30729;49.486;10.792;2022-11-11T03:33:01;14.02;;;5.57;;
44995;SDS011;30729;49.486;10.792;2022-11-11T03:35:28;10.25;;;5.45;;
44995;SDS011;30729;49.486;10.792;2022-11-11T03:37:54;11.32;;;5.72;;
44995;SDS011;30729;49.486;10.792;2022-11-11T03:40:38;8.82;;;5.15;;
44995;SDS011;30729;49.486;10.792;2022-11-11T03:43:03;8.35;;;4.38;;
44995;SDS011;30729;49.486;10.792;2022-11-11T03:45:29;8.10;;;4.85;;
44995;SDS011;30729;49.486;10.792;2022-11-11T03:47:55;7.47;;;4.05;;
44995;SDS011;30729;49.486;10.792;2022-11-11T03:50:20;7.05;;;4.50;;
44995;SDS011;30729;49.486;10.792;2022-11-11T03:52:46;10.23;;;5.10;;
44995;SDS011;30729;49.486;10.792;2022-11-11T03:55:12;7.85;;;4.28;;
44995;SDS011;30729;49.486;10.792;2022-11-11T03:57:41;8.82;;;4.47;;
44995;SDS011;30729;49.486;10.792;2022-11-11T04:00:09;8.95;;;4.72;;
44995;SDS011;30729;49.486;10.792;2022-11-11T04:02:35;8.95;;;5.30;;
44995;SDS011;30729;49.486;10.792;2022-11-11T04:05:19;11.98;;;5.30;;
44995;SDS011;30729;49.486;10.792;2022-11-11T04:08:03;7.85;;;4.40;;
44995;SDS011;30729;49.486;10.792;2022-11-11T04:10:48;9.15;;;4.97;;
44995;SDS011;30729;49.486;10.792;2022-11-11T04:13:13;9.82;;;5.05;;
44995;SDS011;30729;49.486;10.792;2022-11-11T04:15:57;8.05;;;4.82;;
44995;SDS011;30729;49.486;10.792;2022-11-11T04:18:32;9.45;;;4.97;;
44995;SDS011;30729;49.486;10.792;2022-11-11T04:21:19;12.25;;;5.53;;
44995;SDS011;30729;49.486;10.792;2022-11-11T04:24:03;10.30;;;5.82;;
44995;SDS011;30729;49.486;10.792;2022-11-11T04:26:48;12.65;;;5.95;;
44995;SDS011;30729;49.486;10.792;2022-11-11T04:29:13;11.95;;;6.00;;
44995;SDS011;30729;49.486;10.792;2022-11-11T04:34:52;9.55;;;5.72;;
44995;SDS011;30729;49.486;10.792;2022-11-11T04:37:20;13.25;;;6.30;;
44995;SDS011;30729;49.486;10.792;2022-11-11T04:39:46;12.38;;;5.97;;
44995;SDS011;30729;49.486;10.792;2022-11-11T04:42:31;12.50;;;6.03;;
44995;SDS011;30729;49.486;10.792;2022-11-11T04:44:57;10.32;;;5.80;;
44995;SDS011;30729;49.486;10.792;2022-11-11T04:50:33;14.82;;;6.35;;
44995;SDS011;30729;49.486;10.792;2022-11-11T04:53:00;16.92;;;9.63;;
44995;SDS011;30729;49.486;10.792;2022-11-11T04:55:26;16.30;;;9.70;;
44995;SDS011;30729;49.486;10.792;2022-11-11T04:58:10;14.18;;;8.15;;
44995;SDS011;30729;49.486;10.792;2022-11-11T05:00:36;14.45;;;6.93;;
44995;SDS011;30729;49.486;10.792;2022-11-11T05:03:02;13.45;;;7.28;;
44995;SDS011;30729;49.486;10.792;2022-11-11T05:05:44;12.48;;;7.53;;
44995;SDS011;30729;49.486;10.792;2022-11-11T05:08:30;11.85;;;6.85;;
44995;SDS011;30729;49.486;10.792;2022-11-11T05:11:15;10.63;;;6.32;;
44995;SDS011;30729;49.486;10.792;2022-11-11T05:13:41;15.75;;;7.18;;
44995;SDS011;30729;49.486;10.792;2022-11-11T05:16:26;11.38;;;6.53;;
44995;SDS011;30729;49.486;10.792;2022-11-11T05:19:12;11.27;;;7.00;;
44995;SDS011;30729;49.486;10.792;2022-11-11T05:22:04;12.25;;;6.75;;
44995;SDS011;30729;49.486;10.792;2022-11-11T05:24:35;11.45;;;6.85;;
44995;SDS011;30729;49.486;10.792;2022-11-11T05:27:19;11.38;;;6.78;;
44995;SDS011;30729;49.486;10.792;2022-11-11T05:29:47;10.20;;;5.80;;
44995;SDS011;30729;49.486;10.792;2022-11-11T05:32:16;11.63;;;6.65;;
44995;SDS011;30729;49.486;10.792;2022-11-11T05:34:43;9.77;;;5.95;;
44995;SDS011;30729;49.486;10.792;2022-11-11T05:37:08;13.63;;;6.20;;
44995;SDS011;30729;49.486;10.792;2022-11-11T05:39:34;12.18;;;6.22;;
44995;SDS011;30729;49.486;10.792;2022-11-11T05:41:59;10.93;;;5.55;;
44995;SDS011;30729;49.486;10.792;2022-11-11T05:44:25;10.80;;;5.97;;
44995;SDS011;30729;49.486;10.792;2022-11-11T05:46:50;11.40;;;5.97;;
44995;SDS011;30729;49.486;10.792;2022-11-11T05:49:15;13.55;;;6.05;;
44995;SDS011;30729;49.486;10.792;2022-11-11T05:51:41;15.55;;;7.00;;
44995;SDS011;30729;49.486;10.792;2022-11-11T05:54:10;10.13;;;6.13;;
44995;SDS011;30729;49.486;10.792;2022-11-11T05:56:36;11.15;;;6.70;;
44995;SDS011;30729;49.486;10.792;2022-11-11T05:59:02;10.05;;;5.82;;
44995;SDS011;30729;49.486;10.792;2022-11-11T06:01:28;11.77;;;6.68;;
44995;SDS011;30729;49.486;10.792;2022-11-11T06:03:54;12.85;;;7.30;;
44995;SDS011;30729;49.486;10.792;2022-11-11T06:06:19;10.73;;;6.40;;
44995;SDS011;30729;49.486;10.792;2022-11-11T06:08:45;10.70;;;6.43;;
44995;SDS011;30729;49.486;10.792;2022-11-11T06:11:10;10.23;;;6.18;;
44995;SDS011;30729;49.486;10.792;2022-11-11T06:13:36;10.38;;;6.22;;
44995;SDS011;30729;49.486;10.792;2022-11-11T06:16:01;12.50;;;7.60;;
44995;SDS011;30729;49.486;10.792;2022-11-11T06:18:28;12.27;;;6.70;;
44995;SDS011;30729;49.486;10.792;2022-11-11T06:20:54;10.85;;;6.65;;
44995;SDS011;30729;49.486;10.792;2022-11-11T06:23:23;13.95;;;7.40;;
44995;SDS011;30729;49.486;10.792;2022-11-11T06:25:50;13.55;;;7.35;;
44995;SDS011;30729;49.486;10.792;2022-11-11T06:28:34;14.13;;;6.72;;
44995;SDS011;30729;49.486;10.792;2022-11-11T06:31:00;11.73;;;5.32;;
44995;SDS011;30729;49.486;10.792;2022-11-11T06:33:26;11.15;;;6.10;;
44995;SDS011;30729;49.486;10.792;2022-11-11T06:35:52;12.00;;;5.95;;
44995;SDS011;30729;49.486;10.792;2022-11-11T06:38:18;11.52;;;6.10;;
44995;SDS011;30729;49.486;10.792;2022-11-11T06:40:45;11.13;;;6.38;;
44995;SDS011;30729;49.486;10.792;2022-11-11T06:43:11;12.82;;;6.82;;
44995;SDS011;30729;49.486;10.792;2022-11-11T06:45:36;14.35;;;5.65;;
44995;SDS011;30729;49.486;10.792;2022-11-11T06:48:02;10.07;;;5.40;;
44995;SDS011;30729;49.486;10.792;2022-11-11T06:50:29;10.27;;;5.70;;
44995;SDS011;30729;49.486;10.792;2022-11-11T06:53:07;10.90;;;5.57;;
44995;SDS011;30729;49.486;10.792;2022-11-11T06:55:34;11.43;;;4.97;;
44995;SDS011;30729;49.486;10.792;2022-11-11T06:58:06;8.55;;;4.38;;
44995;SDS011;30729;49.486;10.792;2022-11-11T07:00:34;9.70;;;4.85;;
44995;SDS011;30729;49.486;10.792;2022-11-11T07:03:00;11.52;;;5.13;;
44995;SDS011;30729;49.486;10.792;2022-11-11T07:05:26;10.10;;;5.43;;
44995;SDS011;30729;49.486;10.792;2022-11-11T07:07:51;9.27;;;5.65;;
44995;SDS011;30729;49.486;10.792;2022-11-11T07:10:17;10.45;;;5.88;;
44995;SDS011;30729;49.486;10.792;2022-11-11T07:12:43;15.25;;;6.60;;
44995;SDS011;30729;49.486;10.792;2022-11-11T07:15:08;10.77;;;5.82;;
44995;SDS011;30729;49.486;10.792;2022-11-11T07:17:35;10.52;;;6.00;;
44995;SDS011;30729;49.486;10.792;2022-11-11T07:20:00;11.52;;;6.32;;
44995;SDS011;30729;49.486;10.792;2022-11-11T07:22:26;15.25;;;6.63;;
44995;SDS011;30729;49.486;10.792;2022-11-11T07:24:51;14.38;;;8.00;;
44995;SDS011;30729;49.486;10.792;2022-11-11T07:27:16;12.75;;;7.05;;
44995;SDS011;30729;49.486;10.792;2022-11-11T07:29:42;17.73;;;9.38;;
44995;SDS011;30729;49.486;10.792;2022-11-11T07:32:07;18.20;;;11.07;;
44995;SDS011;30729;49.486;10.792;2022-11-11T07:34:33;23.02;;;13.57;;
44995;SDS011;30729;49.486;10.792;2022-11-11T07:36:58;27.52;;;13.73;;
44995;SDS011;30729;49.486;10.792;2022-11-11T07:39:23;22.33;;;12.57;;
44995;SDS011;30729;49.486;10.792;2022-11-11T07:41:49;20.80;;;12.45;;
44995;SDS011;30729;49.486;10.792;2022-11-11T07:44:14;23.38;;;13.45;;
44995;SDS011;30729;49.486;10.792;2022-11-11T07:46:39;22.10;;;12.45;;
44995;SDS011;30729;49.486;10.792;2022-11-11T07:49:05;30.63;;;17.10;;
44995;SDS011;30729;49.486;10.792;2022-11-11T07:51:31;26.65;;;16.30;;
44995;SDS011;30729;49.486;10.792;2022-11-11T07:53:56;30.45;;;15.15;;
44995;SDS011;30729;49.486;10.792;2022-11-11T07:56:21;21.60;;;13.07;;
44995;SDS011;30729;49.486;10.792;2022-11-11T07:58:47;22.40;;;13.00;;
44995;SDS011;30729;49.486;10.792;2022-11-11T08:01:12;20.40;;;11.95;;
44995;SDS011;30729;49.486;10.792;2022-11-11T08:03:37;19.70;;;9.90;;
44995;SDS011;30729;49.486;10.792;2022-11-11T08:06:14;21.50;;;12.63;;
44995;SDS011;30729;49.486;10.792;2022-11-11T08:08:41;21.08;;;12.23;;
44995;SDS011;30729;49.486;10.792;2022-11-11T08:11:06;18.92;;;11.00;;
44995;SDS011;30729;49.486;10.792;2022-11-11T08:13:32;17.52;;;10.50;;
44995;SDS011;30729;49.486;10.792;2022-11-11T08:16:07;18.92;;;9.65;;
44995;SDS011;30729;49.486;10.792;2022-11-11T08:18:34;17.05;;;9.95;;
44995;SDS011;30729;49.486;10.792;2022-11-11T08:21:00;16.08;;;9.77;;
44995;SDS011;30729;49.486;10.792;2022-11-11T08:23:27;23.55;;;10.10;;
44995;SDS011;30729;49.486;10.792;2022-11-11T08:26:03;26.25;;;9.27;;
44995;SDS011;30729;49.486;10.792;2022-11-11T08:28:31;14.15;;;9.90;;
44995;SDS011;30729;49.486;10.792;2022-11-11T08:30:58;13.45;;;7.22;;
44995;SDS011;30729;49.486;10.792;2022-11-11T08:33:25;15.55;;;6.72;;
44995;SDS011;30729;49.486;10.792;2022-11-11T08:35:51;10.25;;;6.20;;
44995;SDS011;30729;49.486;10.792;2022-11-11T08:38:20;17.00;;;7.13;;
44995;SDS011;30729;49.486;10.792;2022-11-11T08:40:47;11.10;;;6.80;;
44995;SDS011;30729;49.486;10.792;2022-11-11T08:43:13;11.48;;;6.80;;
44995;SDS011;30729;49.486;10.792;2022-11-11T08:45:39;12.32;;;6.82;;
44995;SDS011;30729;49.486;10.792;2022-11-11T08:48:05;15.23;;;6.55;;
44995;SDS011;30729;49.486;10.792;2022-11-11T08:50:34;12.55;;;6.38;;
44995;SDS011;30729;49.486;10.792;2022-11-11T08:53:01;11.07;;;6.53;;
44995;SDS011;30729;49.486;10.792;2022-11-11T08:55:26;11.65;;;6.63;;
44995;SDS011;30729;49.486;10.792;2022-11-11T08:57:58;14.52;;;6.65;;
44995;SDS011;30729;49.486;10.792;2022-11-11T09:00:24;15.23;;;7.32;;
44995;SDS011;30729;49.486;10.792;2022-11-11T09:02:50;14.15;;;7.50;;
44995;SDS011;30729;49.486;10.792;2022-11-11T09:05:16;17.23;;;8.30;;
44995;SDS011;30729;49.486;10.792;2022-11-11T09:07:41;12.18;;;7.20;;
44995;SDS011;30729;49.486;10.792;2022-11-11T09:10:07;11.85;;;7.32;;
44995;SDS011;30729;49.486;10.792;2022-11-11T09:12:33;12.48;;;7.63;;
44995;SDS011;30729;49.486;10.792;2022-11-11T09:14:58;17.63;;;8.57;;
44995;SDS011;30729;49.486;10.792;2022-11-11T09:17:25;15.95;;;9.07;;
44995;SDS011;30729;49.486;10.792;2022-11-11T09:19:51;13.43;;;7.82;;
44995;SDS011;30729;49.486;10.792;2022-11-11T09:22:16;12.77;;;7.45;;
44995;SDS011;30729;49.486;10.792;2022-11-11T09:24:41;13.77;;;7.80;;
44995;SDS011;30729;49.486;10.792;2022-11-11T09:27:08;17.02;;;9.00;;
44995;SDS011;30729;49.486;10.792;2022-11-11T09:29:34;18.67;;;9.10;;
44995;SDS011;30729;49.486;10.792;2022-11-11T09:31:59;16.15;;;8.65;;
44995;SDS011;30729;49.486;10.792;2022-11-11T09:34:24;19.67;;;8.10;;
44995;SDS011;30729;49.486;10.792;2022-11-11T09:36:50;13.48;;;7.70;;
44995;SDS011;30729;49.486;10.792;2022-11-11T09:39:15;14.27;;;8.30;;
44995;SDS011;30729;49.486;10.792;2022-11-11T09:41:58;14.10;;;7.68;;
44995;SDS011;30729;49.486;10.792;2022-11-11T09:47:11;12.07;;;7.53;;
44995;SDS011;30729;49.486;10.792;2022-11-11T09:50:22;13.35;;;7.75;;
44995;SDS011;30729;49.486;10.792;2022-11-11T10:00:45;14.82;;;7.40;;
44995;SDS011;30729;49.486;10.792;2022-11-11T10:03:20;13.85;;;7.25;;
44995;SDS011;30729;49.486;10.792;2022-11-11T10:05:51;13.45;;;7.28;;
44995;SDS011;30729;49.486;10.792;2022-11-11T10:08:26;12.45;;;7.70;;
44995;SDS011;30729;49.486;10.792;2022-11-11T10:10:54;12.43;;;7.15;;
44995;SDS011;30729;49.486;10.792;2022-11-11T10:21:22;14.40;;;7.90;;
44995;SDS011;30729;49.486;10.792;2022-11-11T10:23:51;10.80;;;6.45;;
44995;SDS011;30729;49.486;10.792;2022-11-11T10:26:29;14.50;;;7.13;;
44995;SDS011;30729;49.486;10.792;2022-11-11T10:29:02;13.73;;;7.68;;
44995;SDS011;30729;49.486;10.792;2022-11-11T10:31:33;13.20;;;7.32;;
44995;SDS011;30729;49.486;10.792;2022-11-11T10:34:04;12.70;;;7.45;;
44995;SDS011;30729;49.486;10.792;2022-11-11T10:36:34;12.68;;;7.40;;
44995;SDS011;30729;49.486;10.792;2022-11-11T10:39:07;12.57;;;6.90;;
44995;SDS011;30729;49.486;10.792;2022-11-11T10:41:39;10.85;;;6.40;;
44995;SDS011;30729;49.486;10.792;2022-11-11T10:44:20;10.60;;;6.15;;
44995;SDS011;30729;49.486;10.792;2022-11-11T10:55:50;12.57;;;6.20;;
44995;SDS011;30729;49.486;10.792;2022-11-11T10:58:27;14.38;;;6.47;;
44995;SDS011;30729;49.486;10.792;2022-11-11T11:00:54;11.80;;;6.07;;
44995;SDS011;30729;49.486;10.792;2022-11-11T11:03:24;11.00;;;6.43;;
44995;SDS011;30729;49.486;10.792;2022-11-11T11:06:05;12.63;;;6.45;;
44995;SDS011;30729;49.486;10.792;2022-11-11T11:11:14;17.75;;;6.85;;
44995;SDS011;30729;49.486;10.792;2022-11-11T11:13:53;14.13;;;5.20;;
44995;SDS011;30729;49.486;10.792;2022-11-11T11:16:37;9.90;;;5.20;;
44995;SDS011;30729;49.486;10.792;2022-11-11T11:19:15;10.00;;;5.43;;
44995;SDS011;30729;49.486;10.792;2022-11-11T11:24:23;10.23;;;4.65;;
44995;SDS011;30729;49.486;10.792;2022-11-11T11:29:36;13.05;;;4.95;;
44995;SDS011;30729;49.486;10.792;2022-11-11T11:32:10;9.65;;;4.30;;
44995;SDS011;30729;49.486;10.792;2022-11-11T11:34:52;10.27;;;5.00;;
44995;SDS011;30729;49.486;10.792;2022-11-11T11:37:20;11.52;;;4.65;;
44995;SDS011;30729;49.486;10.792;2022-11-11T11:39:47;9.40;;;5.50;;
44995;SDS011;30729;49.486;10.792;2022-11-11T11:42:26;9.93;;;4.72;;
44995;SDS011;30729;49.486;10.792;2022-11-11T11:44:52;7.95;;;4.57;;
44995;SDS011;30729;49.486;10.792;2022-11-11T11:53:05;8.88;;;4.93;;
44995;SDS011;30729;49.486;10.792;2022-11-11T11:56:20;10.88;;;4.72;;
44995;SDS011;30729;49.486;10.792;2022-11-11T11:59:16;10.70;;;5.35;;
44995;SDS011;30729;49.486;10.792;2022-11-11T12:07:04;8.52;;;4.25;;
44995;SDS011;30729;49.486;10.792;2022-11-11T12:10:23;11.30;;;5.18;;
44995;SDS011;30729;49.486;10.792;2022-11-11T12:18:30;10.70;;;3.33;;
44995;SDS011;30729;49.486;10.792;2022-11-11T12:21:08;16.55;;;4.53;;
44995;SDS011;30729;49.486;10.792;2022-11-11T12:29:37;8.10;;;3.80;;
44995;SDS011;30729;49.486;10.792;2022-11-11T12:40:34;9.15;;;4.75;;
44995;SDS011;30729;49.486;10.792;2022-11-11T12:46:42;9.43;;;3.67;;
44995;SDS011;30729;49.486;10.792;2022-11-11T12:52:05;7.32;;;3.42;;
44995;SDS011;30729;49.486;10.792;2022-11-11T13:05:25;8.32;;;3.97;;
44995;SDS011;30729;49.486;10.792;2022-11-11T13:10:59;7.60;;;3.38;;
44995;SDS011;30729;49.486;10.792;2022-11-11T13:16:07;9.20;;;3.55;;
44995;SDS011;30729;49.486;10.792;2022-11-11T13:21:15;7.57;;;3.45;;
44995;SDS011;30729;49.486;10.792;2022-11-11T13:23:44;11.32;;;3.90;;
44995;SDS011;30729;49.486;10.792;2022-11-11T13:29:05;8.63;;;4.05;;
44995;SDS011;30729;49.486;10.792;2022-11-11T13:31:54;7.68;;;3.35;;
44995;SDS011;30729;49.486;10.792;2022-11-11T13:34:22;9.70;;;4.18;;
44995;SDS011;30729;49.486;10.792;2022-11-11T13:36:50;8.68;;;3.83;;
44995;SDS011;30729;49.486;10.792;2022-11-11T13:39:28;8.43;;;3.80;;
44995;SDS011;30729;49.486;10.792;2022-11-11T13:42:12;11.57;;;3.70;;
44995;SDS011;30729;49.486;10.792;2022-11-11T13:44:49;10.68;;;4.15;;
44995;SDS011;30729;49.486;10.792;2022-11-11T13:47:18;10.65;;;4.45;;
44995;SDS011;30729;49.486;10.792;2022-11-11T13:49:53;10.02;;;3.85;;
44995;SDS011;30729;49.486;10.792;2022-11-11T13:55:04;6.93;;;3.50;;
44995;SDS011;30729;49.486;10.792;2022-11-11T13:57:33;14.35;;;4.10;;
44995;SDS011;30729;49.486;10.792;2022-11-11T14:02:40;7.70;;;3.58;;
44995;SDS011;30729;49.486;10.792;2022-11-11T14:10:09;5.93;;;3.25;;
44995;SDS011;30729;49.486;10.792;2022-11-11T14:12:55;6.53;;;3.42;;
44995;SDS011;30729;49.486;10.792;2022-11-11T14:18:00;6.57;;;3.20;;
44995;SDS011;30729;49.486;10.792;2022-11-11T14:22:54;6.10;;;2.95;;
44995;SDS011;30729;49.486;10.792;2022-11-11T14:27:48;6.35;;;3.53;;
44995;SDS011;30729;49.486;10.792;2022-11-11T14:30:27;9.43;;;3.30;;
44995;SDS011;30729;49.486;10.792;2022-11-11T14:33:07;8.57;;;3.10;;
44995;SDS011;30729;49.486;10.792;2022-11-11T14:35:37;8.30;;;3.38;;
44995;SDS011;30729;49.486;10.792;2022-11-11T14:40:54;10.38;;;3.55;;
44995;SDS011;30729;49.486;10.792;2022-11-11T14:46:05;6.80;;;2.80;;
44995;SDS011;30729;49.486;10.792;2022-11-11T14:48:50;9.68;;;3.28;;
44995;SDS011;30729;49.486;10.792;2022-11-11T14:51:36;11.25;;;5.13;;
44995;SDS011;30729;49.486;10.792;2022-11-11T14:54:05;11.00;;;4.70;;
44995;SDS011;30729;49.486;10.792;2022-11-11T14:56:42;11.02;;;4.88;;
44995;SDS011;30729;49.486;10.792;2022-11-11T14:59:08;10.95;;;5.07;;
44995;SDS011;30729;49.486;10.792;2022-11-11T15:01:38;15.15;;;7.15;;
44995;SDS011;30729;49.486;10.792;2022-11-11T15:04:03;10.70;;;4.40;;
44995;SDS011;30729;49.486;10.792;2022-11-11T15:06:40;11.65;;;4.90;;
44995;SDS011;30729;49.486;10.792;2022-11-11T15:09:18;9.73;;;4.85;;
44995;SDS011;30729;49.486;10.792;2022-11-11T15:11:50;10.88;;;5.13;;
44995;SDS011;30729;49.486;10.792;2022-11-11T15:33:43;10.77;;;4.95;;
44995;SDS011;30729;49.486;10.792;2022-11-11T15:38:48;13.40;;;5.97;;
44995;SDS011;30729;49.486;10.792;2022-11-11T15:41:27;13.60;;;5.15;;
44995;SDS011;30729;49.486;10.792;2022-11-11T15:43:59;14.38;;;5.13;;
44995;SDS011;30729;49.486;10.792;2022-11-11T15:46:26;10.40;;;6.10;;
44995;SDS011;30729;49.486;10.792;2022-11-11T15:48:54;14.88;;;7.10;;
44995;SDS011;30729;49.486;10.792;2022-11-11T15:51:30;10.00;;;6.43;;
44995;SDS011;30729;49.486;10.792;2022-11-11T15:56:40;9.10;;;4.05;;
44995;SDS011;30729;49.486;10.792;2022-11-11T15:59:20;9.57;;;3.80;;
44995;SDS011;30729;49.486;10.792;2022-11-11T16:01:47;6.93;;;3.17;;
44995;SDS011;30729;49.486;10.792;2022-11-11T16:04:15;7.88;;;3.65;;
44995;SDS011;30729;49.486;10.792;2022-11-11T16:06:43;7.07;;;3.60;;
44995;SDS011;30729;49.486;10.792;2022-11-11T16:09:09;8.40;;;4.68;;
44995;SDS011;30729;49.486;10.792;2022-11-11T16:11:38;6.63;;;3.53;;
44995;SDS011;30729;49.486;10.792;2022-11-11T16:14:04;7.90;;;3.50;;
44995;SDS011;30729;49.486;10.792;2022-11-11T16:16:32;8.77;;;3.60;;
44995;SDS011;30729;49.486;10.792;2022-11-11T16:19:02;7.90;;;3.90;;
44995;SDS011;30729;49.486;10.792;2022-11-11T16:21:38;9.63;;;4.63;;
44995;SDS011;30729;49.486;10.792;2022-11-11T16:26:47;7.90;;;3.92;;
44995;SDS011;30729;49.486;10.792;2022-11-11T16:29:13;10.15;;;4.93;;
44995;SDS011;30729;49.486;10.792;2022-11-11T16:31:40;9.32;;;4.10;;
44995;SDS011;30729;49.486;10.792;2022-11-11T16:37:01;9.07;;;4.57;;
44995;SDS011;30729;49.486;10.792;2022-11-11T16:39:34;11.38;;;4.75;;
44995;SDS011;30729;49.486;10.792;2022-11-11T16:42:03;9.10;;;5.30;;
44995;SDS011;30729;49.486;10.792;2022-11-11T16:46:59;9.57;;;4.32;;
44995;SDS011;30729;49.486;10.792;2022-11-11T16:52:21;9.77;;;4.90;;
44995;SDS011;30729;49.486;10.792;2022-11-11T16:54:53;12.88;;;6.97;;
44995;SDS011;30729;49.486;10.792;2022-11-11T16:57:23;11.98;;;6.05;;
44995;SDS011;30729;49.486;10.792;2022-11-11T16:59:55;11.75;;;5.72;;
44995;SDS011;30729;49.486;10.792;2022-11-11T17:02:29;10.82;;;4.75;;
44995;SDS011;30729;49.486;10.792;2022-11-11T17:04:55;11.40;;;5.40;;
44995;SDS011;30729;49.486;10.792;2022-11-11T17:07:40;9.40;;;4.55;;
44995;SDS011;30729;49.486;10.792;2022-11-11T17:12:32;11.70;;;5.32;;
44995;SDS011;30729;49.486;10.792;2022-11-11T17:14:58;15.63;;;7.25;;
44995;SDS011;30729;49.486;10.792;2022-11-11T17:17:24;11.95;;;5.53;;
44995;SDS011;30729;49.486;10.792;2022-11-11T17:19:50;11.25;;;5.32;;
44995;SDS011;30729;49.486;10.792;2022-11-11T17:22:15;14.63;;;5.80;;
44995;SDS011;30729;49.486;10.792;2022-11-11T17:24:40;12.52;;;5.97;;
44995;SDS011;30729;49.486;10.792;2022-11-11T17:27:06;12.95;;;6.90;;
44995;SDS011;30729;49.486;10.792;2022-11-11T17:29:32;12.27;;;5.40;;
44995;SDS011;30729;49.486;10.792;2022-11-11T17:31:58;10.70;;;5.32;;
44995;SDS011;30729;49.486;10.792;2022-11-11T17:34:23;8.50;;;4.70;;
44995;SDS011;30729;49.486;10.792;2022-11-11T17:36:48;9.90;;;5.70;;